sensor_id;sensor_type;location;lat;lon;timestamp;P1;durP1;ratioP1;P2;durP2;ratioP2
66169;SDS011;66757;44.024;20.456;2023-04-15T00:00:52;9.00;;;3.88;;
66169;SDS011;66757;44.024;20.456;2023-04-15T00:03:18;8.98;;;4.22;;
66169;SDS011;66757;44.024;20.456;2023-04-15T00:05:43;6.80;;;2.97;;
66169;SDS011;66757;44.024;20.456;2023-04-15T00:08:09;9.75;;;4.57;;
66169;SDS011;66757;44.024;20.456;2023-04-15T00:10:34;11.48;;;5.53;;
66169;SDS011;66757;44.024;20.456;2023-04-15T00:12:59;14.73;;;6.38;;
66169;SDS011;66757;44.024;20.456;2023-04-15T00:15:25;15.25;;;7.05;;
66169;SDS011;66757;44.024;20.456;2023-04-15T00:17:51;41.38;;;23.23;;
66169;SDS011;66757;44.024;20.456;2023-04-15T00:20:16;51.60;;;29.50;;
66169;SDS011;66757;44.024;20.456;2023-04-15T00:22:42;22.20;;;11.52;;
66169;SDS011;66757;44.024;20.456;2023-04-15T00:25:09;18.67;;;11.65;;
66169;SDS011;66757;44.024;20.456;2023-04-15T00:27:35;20.35;;;12.35;;
66169;SDS011;66757;44.024;20.456;2023-04-15T00:30:00;24.58;;;13.60;;
66169;SDS011;66757;44.024;20.456;2023-04-15T00:32:26;16.20;;;9.35;;
66169;SDS011;66757;44.024;20.456;2023-04-15T00:34:51;26.40;;;13.60;;
66169;SDS011;66757;44.024;20.456;2023-04-15T00:37:17;18.38;;;9.52;;
66169;SDS011;66757;44.024;20.456;2023-04-15T00:39:44;15.18;;;7.72;;
66169;SDS011;66757;44.024;20.456;2023-04-15T00:42:09;14.70;;;8.02;;
66169;SDS011;66757;44.024;20.456;2023-04-15T00:44:35;14.48;;;7.82;;
66169;SDS011;66757;44.024;20.456;2023-04-15T00:47:00;16.45;;;8.23;;
66169;SDS011;66757;44.024;20.456;2023-04-15T00:49:26;13.55;;;7.40;;
66169;SDS011;66757;44.024;20.456;2023-04-15T00:51:53;13.23;;;7.60;;
66169;SDS011;66757;44.024;20.456;2023-04-15T00:54:18;13.35;;;9.18;;
66169;SDS011;66757;44.024;20.456;2023-04-15T00:56:44;9.77;;;6.25;;
66169;SDS011;66757;44.024;20.456;2023-04-15T00:59:10;11.82;;;5.75;;
66169;SDS011;66757;44.024;20.456;2023-04-15T01:01:36;8.77;;;5.00;;
66169;SDS011;66757;44.024;20.456;2023-04-15T01:04:01;6.88;;;3.25;;
66169;SDS011;66757;44.024;20.456;2023-04-15T01:09:20;13.27;;;4.00;;
66169;SDS011;66757;44.024;20.456;2023-04-15T01:11:45;7.28;;;3.33;;
66169;SDS011;66757;44.024;20.456;2023-04-15T01:14:11;7.18;;;2.63;;
66169;SDS011;66757;44.024;20.456;2023-04-15T01:16:37;6.65;;;2.92;;
66169;SDS011;66757;44.024;20.456;2023-04-15T01:19:07;7.28;;;3.30;;
66169;SDS011;66757;44.024;20.456;2023-04-15T01:21:37;8.00;;;4.57;;
66169;SDS011;66757;44.024;20.456;2023-04-15T01:24:07;9.85;;;5.18;;
66169;SDS011;66757;44.024;20.456;2023-04-15T01:26:36;20.50;;;11.00;;
66169;SDS011;66757;44.024;20.456;2023-04-15T01:29:01;25.67;;;12.55;;
66169;SDS011;66757;44.024;20.456;2023-04-15T01:31:28;20.50;;;10.60;;
66169;SDS011;66757;44.024;20.456;2023-04-15T01:33:53;26.63;;;13.85;;
66169;SDS011;66757;44.024;20.456;2023-04-15T01:36:18;21.85;;;12.50;;
66169;SDS011;66757;44.024;20.456;2023-04-15T01:38:44;21.80;;;10.95;;
66169;SDS011;66757;44.024;20.456;2023-04-15T01:41:09;25.95;;;10.85;;
66169;SDS011;66757;44.024;20.456;2023-04-15T01:43:35;15.85;;;9.05;;
66169;SDS011;66757;44.024;20.456;2023-04-15T01:46:01;11.18;;;5.47;;
66169;SDS011;66757;44.024;20.456;2023-04-15T01:48:28;5.72;;;3.08;;
66169;SDS011;66757;44.024;20.456;2023-04-15T01:50:53;6.45;;;2.65;;
66169;SDS011;66757;44.024;20.456;2023-04-15T01:53:19;8.88;;;3.65;;
66169;SDS011;66757;44.024;20.456;2023-04-15T01:55:44;5.90;;;3.00;;
66169;SDS011;66757;44.024;20.456;2023-04-15T01:58:10;6.47;;;3.38;;
66169;SDS011;66757;44.024;20.456;2023-04-15T02:00:36;8.50;;;3.80;;
66169;SDS011;66757;44.024;20.456;2023-04-15T02:05:32;6.20;;;2.45;;
66169;SDS011;66757;44.024;20.456;2023-04-15T02:07:58;12.07;;;2.80;;
66169;SDS011;66757;44.024;20.456;2023-04-15T02:10:24;7.30;;;3.00;;
66169;SDS011;66757;44.024;20.456;2023-04-15T02:12:49;8.70;;;3.17;;
66169;SDS011;66757;44.024;20.456;2023-04-15T02:15:15;12.43;;;3.05;;
66169;SDS011;66757;44.024;20.456;2023-04-15T02:17:40;7.10;;;2.00;;
66169;SDS011;66757;44.024;20.456;2023-04-15T02:20:09;7.88;;;1.75;;
66169;SDS011;66757;44.024;20.456;2023-04-15T02:22:36;10.05;;;2.78;;
66169;SDS011;66757;44.024;20.456;2023-04-15T02:25:01;9.93;;;2.50;;
66169;SDS011;66757;44.024;20.456;2023-04-15T02:27:29;8.70;;;2.55;;
66169;SDS011;66757;44.024;20.456;2023-04-15T02:29:56;5.68;;;2.00;;
66169;SDS011;66757;44.024;20.456;2023-04-15T02:32:22;5.25;;;1.92;;
66169;SDS011;66757;44.024;20.456;2023-04-15T02:34:49;4.85;;;2.47;;
66169;SDS011;66757;44.024;20.456;2023-04-15T02:37:16;6.43;;;1.98;;
66169;SDS011;66757;44.024;20.456;2023-04-15T02:39:43;5.88;;;1.83;;
66169;SDS011;66757;44.024;20.456;2023-04-15T02:44:57;5.53;;;1.65;;
66169;SDS011;66757;44.024;20.456;2023-04-15T02:47:23;4.60;;;1.25;;
66169;SDS011;66757;44.024;20.456;2023-04-15T02:49:48;5.47;;;2.33;;
66169;SDS011;66757;44.024;20.456;2023-04-15T02:52:14;4.18;;;1.92;;
66169;SDS011;66757;44.024;20.456;2023-04-15T02:54:39;4.70;;;2.00;;
66169;SDS011;66757;44.024;20.456;2023-04-15T02:57:05;7.50;;;3.15;;
66169;SDS011;66757;44.024;20.456;2023-04-15T02:59:31;4.32;;;2.10;;
66169;SDS011;66757;44.024;20.456;2023-04-15T03:01:56;6.55;;;2.45;;
66169;SDS011;66757;44.024;20.456;2023-04-15T03:04:25;9.00;;;3.40;;
66169;SDS011;66757;44.024;20.456;2023-04-15T03:06:50;9.40;;;3.67;;
66169;SDS011;66757;44.024;20.456;2023-04-15T03:09:16;7.15;;;2.72;;
66169;SDS011;66757;44.024;20.456;2023-04-15T03:11:41;5.85;;;2.15;;
66169;SDS011;66757;44.024;20.456;2023-04-15T03:14:07;4.95;;;1.95;;
66169;SDS011;66757;44.024;20.456;2023-04-15T03:16:34;5.70;;;2.53;;
66169;SDS011;66757;44.024;20.456;2023-04-15T03:18:59;5.85;;;1.98;;
66169;SDS011;66757;44.024;20.456;2023-04-15T03:21:24;5.95;;;1.55;;
66169;SDS011;66757;44.024;20.456;2023-04-15T03:23:50;3.75;;;1.42;;
66169;SDS011;66757;44.024;20.456;2023-04-15T03:26:26;5.38;;;1.85;;
66169;SDS011;66757;44.024;20.456;2023-04-15T03:31:16;8.80;;;3.47;;
66169;SDS011;66757;44.024;20.456;2023-04-15T03:33:42;10.50;;;4.63;;
66169;SDS011;66757;44.024;20.456;2023-04-15T03:36:07;11.68;;;5.30;;
66169;SDS011;66757;44.024;20.456;2023-04-15T03:38:32;11.13;;;6.13;;
66169;SDS011;66757;44.024;20.456;2023-04-15T03:40:57;15.63;;;7.78;;
66169;SDS011;66757;44.024;20.456;2023-04-15T03:43:23;7.88;;;3.50;;
66169;SDS011;66757;44.024;20.456;2023-04-15T03:45:48;7.78;;;3.85;;
66169;SDS011;66757;44.024;20.456;2023-04-15T03:48:13;9.45;;;3.88;;
66169;SDS011;66757;44.024;20.456;2023-04-15T03:50:39;9.75;;;4.47;;
66169;SDS011;66757;44.024;20.456;2023-04-15T03:53:04;13.07;;;6.40;;
66169;SDS011;66757;44.024;20.456;2023-04-15T03:55:30;15.48;;;7.40;;
66169;SDS011;66757;44.024;20.456;2023-04-15T03:57:56;10.73;;;5.57;;
66169;SDS011;66757;44.024;20.456;2023-04-15T04:00:22;14.50;;;6.45;;
66169;SDS011;66757;44.024;20.456;2023-04-15T04:02:48;15.32;;;7.40;;
66169;SDS011;66757;44.024;20.456;2023-04-15T04:05:13;15.27;;;7.47;;
66169;SDS011;66757;44.024;20.456;2023-04-15T04:07:38;13.82;;;6.25;;
66169;SDS011;66757;44.024;20.456;2023-04-15T04:10:04;11.93;;;5.60;;
66169;SDS011;66757;44.024;20.456;2023-04-15T04:12:30;11.68;;;4.80;;
66169;SDS011;66757;44.024;20.456;2023-04-15T04:14:56;16.25;;;7.15;;
66169;SDS011;66757;44.024;20.456;2023-04-15T04:17:21;10.13;;;5.10;;
66169;SDS011;66757;44.024;20.456;2023-04-15T04:19:47;8.20;;;4.35;;
66169;SDS011;66757;44.024;20.456;2023-04-15T04:22:13;8.95;;;4.55;;
66169;SDS011;66757;44.024;20.456;2023-04-15T04:24:39;10.50;;;4.10;;
66169;SDS011;66757;44.024;20.456;2023-04-15T04:27:04;7.72;;;4.00;;
66169;SDS011;66757;44.024;20.456;2023-04-15T04:29:30;12.48;;;3.78;;
66169;SDS011;66757;44.024;20.456;2023-04-15T04:31:56;8.25;;;3.63;;
66169;SDS011;66757;44.024;20.456;2023-04-15T04:34:22;6.30;;;4.07;;
66169;SDS011;66757;44.024;20.456;2023-04-15T04:36:48;7.40;;;3.83;;
66169;SDS011;66757;44.024;20.456;2023-04-15T04:39:13;10.20;;;3.70;;
66169;SDS011;66757;44.024;20.456;2023-04-15T04:41:38;8.43;;;3.58;;
66169;SDS011;66757;44.024;20.456;2023-04-15T04:44:04;5.85;;;2.78;;
66169;SDS011;66757;44.024;20.456;2023-04-15T04:46:29;7.35;;;2.65;;
66169;SDS011;66757;44.024;20.456;2023-04-15T04:48:54;4.63;;;1.88;;
66169;SDS011;66757;44.024;20.456;2023-04-15T04:51:20;4.40;;;2.33;;
66169;SDS011;66757;44.024;20.456;2023-04-15T04:53:45;7.63;;;2.15;;
66169;SDS011;66757;44.024;20.456;2023-04-15T04:59:00;5.60;;;2.85;;
66169;SDS011;66757;44.024;20.456;2023-04-15T05:01:25;6.85;;;3.42;;
66169;SDS011;66757;44.024;20.456;2023-04-15T05:03:52;4.90;;;2.65;;
66169;SDS011;66757;44.024;20.456;2023-04-15T05:06:17;49.28;;;20.15;;
66169;SDS011;66757;44.024;20.456;2023-04-15T05:08:45;82.65;;;34.05;;
66169;SDS011;66757;44.024;20.456;2023-04-15T05:11:11;34.17;;;16.02;;
66169;SDS011;66757;44.024;20.456;2023-04-15T05:13:37;16.55;;;8.07;;
66169;SDS011;66757;44.024;20.456;2023-04-15T05:16:05;15.65;;;6.70;;
66169;SDS011;66757;44.024;20.456;2023-04-15T05:18:32;9.85;;;5.10;;
66169;SDS011;66757;44.024;20.456;2023-04-15T05:20:58;65.53;;;26.30;;
66169;SDS011;66757;44.024;20.456;2023-04-15T05:23:23;50.92;;;20.13;;
66169;SDS011;66757;44.024;20.456;2023-04-15T05:25:49;15.38;;;6.90;;
66169;SDS011;66757;44.024;20.456;2023-04-15T05:28:14;14.45;;;7.30;;
66169;SDS011;66757;44.024;20.456;2023-04-15T05:30:40;12.50;;;5.78;;
66169;SDS011;66757;44.024;20.456;2023-04-15T05:33:05;16.05;;;7.53;;
66169;SDS011;66757;44.024;20.456;2023-04-15T05:35:31;37.65;;;19.38;;
66169;SDS011;66757;44.024;20.456;2023-04-15T05:37:57;27.63;;;14.57;;
66169;SDS011;66757;44.024;20.456;2023-04-15T05:40:22;29.83;;;16.20;;
66169;SDS011;66757;44.024;20.456;2023-04-15T05:42:50;29.35;;;15.75;;
66169;SDS011;66757;44.024;20.456;2023-04-15T05:45:15;36.42;;;20.27;;
66169;SDS011;66757;44.024;20.456;2023-04-15T05:47:41;34.20;;;16.13;;
66169;SDS011;66757;44.024;20.456;2023-04-15T05:50:07;36.75;;;22.90;;
66169;SDS011;66757;44.024;20.456;2023-04-15T05:52:33;26.05;;;13.20;;
66169;SDS011;66757;44.024;20.456;2023-04-15T05:54:58;17.67;;;9.32;;
66169;SDS011;66757;44.024;20.456;2023-04-15T05:57:23;18.33;;;9.70;;
66169;SDS011;66757;44.024;20.456;2023-04-15T05:59:49;21.23;;;10.00;;
66169;SDS011;66757;44.024;20.456;2023-04-15T06:02:16;14.25;;;8.07;;
66169;SDS011;66757;44.024;20.456;2023-04-15T06:04:42;16.25;;;7.50;;
66169;SDS011;66757;44.024;20.456;2023-04-15T06:07:09;18.77;;;10.32;;
66169;SDS011;66757;44.024;20.456;2023-04-15T06:09:35;13.80;;;6.32;;
66169;SDS011;66757;44.024;20.456;2023-04-15T06:12:00;7.50;;;2.78;;
66169;SDS011;66757;44.024;20.456;2023-04-15T06:14:26;10.70;;;4.85;;
66169;SDS011;66757;44.024;20.456;2023-04-15T06:16:52;13.60;;;5.93;;
66169;SDS011;66757;44.024;20.456;2023-04-15T06:19:19;21.15;;;11.38;;
66169;SDS011;66757;44.024;20.456;2023-04-15T06:21:44;18.60;;;9.20;;
66169;SDS011;66757;44.024;20.456;2023-04-15T06:24:10;4.88;;;1.20;;
66169;SDS011;66757;44.024;20.456;2023-04-15T06:26:36;4.80;;;1.10;;
66169;SDS011;66757;44.024;20.456;2023-04-15T06:29:01;2.45;;;0.82;;
66169;SDS011;66757;44.024;20.456;2023-04-15T06:31:28;0.85;;;0.25;;
66169;SDS011;66757;44.024;20.456;2023-04-15T06:33:53;1.40;;;0.30;;
66169;SDS011;66757;44.024;20.456;2023-04-15T06:36:20;2.25;;;0.30;;
66169;SDS011;66757;44.024;20.456;2023-04-15T06:38:46;2.55;;;0.35;;
66169;SDS011;66757;44.024;20.456;2023-04-15T06:41:11;1.20;;;0.20;;
66169;SDS011;66757;44.024;20.456;2023-04-15T06:43:37;2.17;;;0.40;;
66169;SDS011;66757;44.024;20.456;2023-04-15T06:46:04;3.15;;;1.02;;
66169;SDS011;66757;44.024;20.456;2023-04-15T06:48:30;1.42;;;0.20;;
66169;SDS011;66757;44.024;20.456;2023-04-15T06:50:56;1.13;;;0.22;;
66169;SDS011;66757;44.024;20.456;2023-04-15T06:53:23;0.63;;;0.20;;
66169;SDS011;66757;44.024;20.456;2023-04-15T06:55:48;0.60;;;0.10;;
66169;SDS011;66757;44.024;20.456;2023-04-15T06:58:13;1.40;;;0.20;;
66169;SDS011;66757;44.024;20.456;2023-04-15T07:00:41;0.40;;;0.10;;
66169;SDS011;66757;44.024;20.456;2023-04-15T07:03:07;0.60;;;0.10;;
66169;SDS011;66757;44.024;20.456;2023-04-15T07:05:36;1.10;;;0.10;;
66169;SDS011;66757;44.024;20.456;2023-04-15T07:08:02;0.30;;;0.03;;
66169;SDS011;66757;44.024;20.456;2023-04-15T07:10:27;0.20;;;0.00;;
66169;SDS011;66757;44.024;20.456;2023-04-15T07:12:53;1.00;;;0.10;;
66169;SDS011;66757;44.024;20.456;2023-04-15T07:15:19;1.65;;;0.00;;
66169;SDS011;66757;44.024;20.456;2023-04-15T07:17:44;0.63;;;0.00;;
66169;SDS011;66757;44.024;20.456;2023-04-15T07:20:10;2.53;;;0.30;;
66169;SDS011;66757;44.024;20.456;2023-04-15T07:22:35;1.17;;;0.22;;
66169;SDS011;66757;44.024;20.456;2023-04-15T07:25:00;1.50;;;0.20;;
66169;SDS011;66757;44.024;20.456;2023-04-15T07:27:26;0.90;;;0.20;;
66169;SDS011;66757;44.024;20.456;2023-04-15T07:29:51;1.55;;;0.20;;
66169;SDS011;66757;44.024;20.456;2023-04-15T07:32:18;0.73;;;0.10;;
66169;SDS011;66757;44.024;20.456;2023-04-15T07:34:44;0.52;;;0.10;;
66169;SDS011;66757;44.024;20.456;2023-04-15T07:37:10;0.73;;;0.10;;
66169;SDS011;66757;44.024;20.456;2023-04-15T07:39:35;1.67;;;0.08;;
66169;SDS011;66757;44.024;20.456;2023-04-15T07:42:01;0.95;;;0.20;;
66169;SDS011;66757;44.024;20.456;2023-04-15T07:44:26;0.50;;;0.10;;
66169;SDS011;66757;44.024;20.456;2023-04-15T07:46:52;1.15;;;0.35;;
66169;SDS011;66757;44.024;20.456;2023-04-15T07:49:17;1.63;;;0.10;;
66169;SDS011;66757;44.024;20.456;2023-04-15T07:51:43;2.10;;;0.10;;
66169;SDS011;66757;44.024;20.456;2023-04-15T07:54:08;1.15;;;0.20;;
66169;SDS011;66757;44.024;20.456;2023-04-15T07:56:34;0.95;;;0.20;;
66169;SDS011;66757;44.024;20.456;2023-04-15T07:58:59;2.00;;;0.20;;
66169;SDS011;66757;44.024;20.456;2023-04-15T08:01:26;1.58;;;0.10;;
66169;SDS011;66757;44.024;20.456;2023-04-15T08:03:51;2.38;;;0.20;;
66169;SDS011;66757;44.024;20.456;2023-04-15T08:06:18;2.45;;;0.20;;
66169;SDS011;66757;44.024;20.456;2023-04-15T08:08:45;0.73;;;0.20;;
66169;SDS011;66757;44.024;20.456;2023-04-15T08:11:11;0.77;;;0.10;;
66169;SDS011;66757;44.024;20.456;2023-04-15T08:13:37;2.25;;;0.40;;
66169;SDS011;66757;44.024;20.456;2023-04-15T08:16:24;1.60;;;0.20;;
66169;SDS011;66757;44.024;20.456;2023-04-15T08:18:50;2.53;;;0.35;;
66169;SDS011;66757;44.024;20.456;2023-04-15T08:21:16;1.35;;;0.20;;
66169;SDS011;66757;44.024;20.456;2023-04-15T08:23:42;2.85;;;0.77;;
66169;SDS011;66757;44.024;20.456;2023-04-15T08:26:07;1.80;;;0.40;;
66169;SDS011;66757;44.024;20.456;2023-04-15T08:28:33;1.00;;;0.20;;
66169;SDS011;66757;44.024;20.456;2023-04-15T08:30:59;2.85;;;0.30;;
66169;SDS011;66757;44.024;20.456;2023-04-15T08:33:26;1.35;;;0.17;;
66169;SDS011;66757;44.024;20.456;2023-04-15T08:35:52;3.92;;;0.20;;
66169;SDS011;66757;44.024;20.456;2023-04-15T08:38:18;2.88;;;0.93;;
66169;SDS011;66757;44.024;20.456;2023-04-15T08:40:44;2.83;;;1.00;;
66169;SDS011;66757;44.024;20.456;2023-04-15T08:43:17;2.00;;;0.20;;
66169;SDS011;66757;44.024;20.456;2023-04-15T08:45:45;2.65;;;0.50;;
66169;SDS011;66757;44.024;20.456;2023-04-15T08:48:12;0.63;;;0.10;;
66169;SDS011;66757;44.024;20.456;2023-04-15T08:50:38;2.40;;;0.45;;
66169;SDS011;66757;44.024;20.456;2023-04-15T08:53:04;0.98;;;0.20;;
66169;SDS011;66757;44.024;20.456;2023-04-15T08:55:31;1.02;;;0.20;;
66169;SDS011;66757;44.024;20.456;2023-04-15T08:58:01;0.52;;;0.10;;
66169;SDS011;66757;44.024;20.456;2023-04-15T09:00:29;1.25;;;0.10;;
66169;SDS011;66757;44.024;20.456;2023-04-15T09:02:55;1.08;;;0.15;;
66169;SDS011;66757;44.024;20.456;2023-04-15T09:05:21;3.53;;;0.30;;
66169;SDS011;66757;44.024;20.456;2023-04-15T09:07:47;1.00;;;0.32;;
66169;SDS011;66757;44.024;20.456;2023-04-15T09:10:12;1.38;;;0.10;;
66169;SDS011;66757;44.024;20.456;2023-04-15T09:12:38;2.17;;;0.40;;
66169;SDS011;66757;44.024;20.456;2023-04-15T09:15:03;1.55;;;0.10;;
66169;SDS011;66757;44.024;20.456;2023-04-15T09:17:31;2.58;;;0.70;;
66169;SDS011;66757;44.024;20.456;2023-04-15T09:20:07;1.25;;;0.20;;
66169;SDS011;66757;44.024;20.456;2023-04-15T09:22:32;3.45;;;0.10;;
66169;SDS011;66757;44.024;20.456;2023-04-15T09:24:59;1.50;;;0.25;;
66169;SDS011;66757;44.024;20.456;2023-04-15T09:27:24;2.95;;;0.80;;
66169;SDS011;66757;44.024;20.456;2023-04-15T09:29:50;2.90;;;0.30;;
66169;SDS011;66757;44.024;20.456;2023-04-15T09:32:17;0.82;;;0.20;;
66169;SDS011;66757;44.024;20.456;2023-04-15T09:34:43;0.73;;;0.17;;
66169;SDS011;66757;44.024;20.456;2023-04-15T09:37:09;3.50;;;0.45;;
66169;SDS011;66757;44.024;20.456;2023-04-15T09:39:50;4.10;;;0.30;;
66169;SDS011;66757;44.024;20.456;2023-04-15T09:42:16;1.27;;;0.20;;
66169;SDS011;66757;44.024;20.456;2023-04-15T09:44:49;3.30;;;0.63;;
66169;SDS011;66757;44.024;20.456;2023-04-15T09:47:27;1.42;;;0.25;;
66169;SDS011;66757;44.024;20.456;2023-04-15T09:49:56;6.22;;;0.80;;
66169;SDS011;66757;44.024;20.456;2023-04-15T09:52:22;3.58;;;0.30;;
66169;SDS011;66757;44.024;20.456;2023-04-15T09:54:47;3.42;;;0.10;;
66169;SDS011;66757;44.024;20.456;2023-04-15T09:57:12;2.60;;;0.50;;
66169;SDS011;66757;44.024;20.456;2023-04-15T09:59:38;1.48;;;0.50;;
66169;SDS011;66757;44.024;20.456;2023-04-15T10:02:04;2.35;;;0.15;;
66169;SDS011;66757;44.024;20.456;2023-04-15T10:04:31;1.98;;;0.50;;
66169;SDS011;66757;44.024;20.456;2023-04-15T10:06:57;2.33;;;0.20;;
66169;SDS011;66757;44.024;20.456;2023-04-15T10:09:23;3.90;;;0.52;;
66169;SDS011;66757;44.024;20.456;2023-04-15T10:11:48;2.53;;;0.50;;
66169;SDS011;66757;44.024;20.456;2023-04-15T10:14:13;5.63;;;0.50;;
66169;SDS011;66757;44.024;20.456;2023-04-15T10:16:41;1.42;;;0.20;;
66169;SDS011;66757;44.024;20.456;2023-04-15T10:19:07;7.10;;;0.30;;
66169;SDS011;66757;44.024;20.456;2023-04-15T10:21:35;1.85;;;0.13;;
66169;SDS011;66757;44.024;20.456;2023-04-15T10:24:02;3.60;;;0.40;;
66169;SDS011;66757;44.024;20.456;2023-04-15T10:26:28;2.03;;;0.30;;
66169;SDS011;66757;44.024;20.456;2023-04-15T10:28:55;2.70;;;0.75;;
66169;SDS011;66757;44.024;20.456;2023-04-15T10:31:20;4.43;;;1.05;;
66169;SDS011;66757;44.024;20.456;2023-04-15T10:36:16;0.77;;;0.20;;
66169;SDS011;66757;44.024;20.456;2023-04-15T10:38:43;3.42;;;0.20;;
66169;SDS011;66757;44.024;20.456;2023-04-15T10:41:17;2.70;;;0.10;;
66169;SDS011;66757;44.024;20.456;2023-04-15T10:46:22;0.30;;;0.10;;
66169;SDS011;66757;44.024;20.456;2023-04-15T10:48:51;0.73;;;0.10;;
66169;SDS011;66757;44.024;20.456;2023-04-15T10:51:25;1.60;;;0.20;;
66169;SDS011;66757;44.024;20.456;2023-04-15T10:53:50;1.85;;;0.20;;
66169;SDS011;66757;44.024;20.456;2023-04-15T10:56:20;2.08;;;0.10;;
66169;SDS011;66757;44.024;20.456;2023-04-15T10:58:46;1.52;;;0.10;;
66169;SDS011;66757;44.024;20.456;2023-04-15T11:01:12;1.25;;;0.10;;
66169;SDS011;66757;44.024;20.456;2023-04-15T11:03:38;0.50;;;0.10;;
66169;SDS011;66757;44.024;20.456;2023-04-15T11:06:03;0.98;;;0.10;;
66169;SDS011;66757;44.024;20.456;2023-04-15T11:11:14;0.80;;;0.10;;
66169;SDS011;66757;44.024;20.456;2023-04-15T11:13:46;0.93;;;0.30;;
66169;SDS011;66757;44.024;20.456;2023-04-15T11:16:12;1.77;;;0.30;;
66169;SDS011;66757;44.024;20.456;2023-04-15T11:18:38;2.00;;;0.30;;
66169;SDS011;66757;44.024;20.456;2023-04-15T11:21:06;1.23;;;0.20;;
66169;SDS011;66757;44.024;20.456;2023-04-15T11:26:02;1.35;;;0.32;;
66169;SDS011;66757;44.024;20.456;2023-04-15T11:28:30;1.67;;;0.65;;
66169;SDS011;66757;44.024;20.456;2023-04-15T11:30:56;0.50;;;0.10;;
66169;SDS011;66757;44.024;20.456;2023-04-15T11:33:21;1.25;;;0.40;;
66169;SDS011;66757;44.024;20.456;2023-04-15T11:35:51;2.35;;;0.90;;
66169;SDS011;66757;44.024;20.456;2023-04-15T11:38:17;0.40;;;0.10;;
66169;SDS011;66757;44.024;20.456;2023-04-15T11:40:44;0.40;;;0.17;;
66169;SDS011;66757;44.024;20.456;2023-04-15T11:45:35;1.75;;;0.20;;
66169;SDS011;66757;44.024;20.456;2023-04-15T11:48:07;0.60;;;0.10;;
66169;SDS011;66757;44.024;20.456;2023-04-15T11:50:33;1.05;;;0.10;;
66169;SDS011;66757;44.024;20.456;2023-04-15T11:52:59;0.30;;;0.10;;
66169;SDS011;66757;44.024;20.456;2023-04-15T11:55:25;1.13;;;0.20;;
66169;SDS011;66757;44.024;20.456;2023-04-15T12:00:35;1.48;;;0.20;;
66169;SDS011;66757;44.024;20.456;2023-04-15T12:11:34;0.25;;;0.03;;
66169;SDS011;66757;44.024;20.456;2023-04-15T12:16:28;0.70;;;0.10;;
66169;SDS011;66757;44.024;20.456;2023-04-15T12:18:54;0.75;;;0.10;;
66169;SDS011;66757;44.024;20.456;2023-04-15T12:21:23;0.90;;;0.10;;
66169;SDS011;66757;44.024;20.456;2023-04-15T12:23:52;0.63;;;0.10;;
66169;SDS011;66757;44.024;20.456;2023-04-15T12:26:28;0.40;;;0.00;;
66169;SDS011;66757;44.024;20.456;2023-04-15T12:29:00;1.10;;;0.40;;
66169;SDS011;66757;44.024;20.456;2023-04-15T12:31:26;0.68;;;0.25;;
66169;SDS011;66757;44.024;20.456;2023-04-15T12:33:53;1.02;;;0.20;;
66169;SDS011;66757;44.024;20.456;2023-04-15T12:36:19;0.77;;;0.20;;
66169;SDS011;66757;44.024;20.456;2023-04-15T12:38:44;1.13;;;0.10;;
66169;SDS011;66757;44.024;20.456;2023-04-15T12:41:10;0.73;;;0.03;;
66169;SDS011;66757;44.024;20.456;2023-04-15T12:43:35;0.28;;;0.03;;
66169;SDS011;66757;44.024;20.456;2023-04-15T12:46:01;0.28;;;0.00;;
66169;SDS011;66757;44.024;20.456;2023-04-15T12:48:26;0.40;;;0.10;;
66169;SDS011;66757;44.024;20.456;2023-04-15T12:50:52;0.80;;;0.25;;
66169;SDS011;66757;44.024;20.456;2023-04-15T12:53:17;1.63;;;0.28;;
66169;SDS011;66757;44.024;20.456;2023-04-15T12:55:42;3.70;;;1.00;;
66169;SDS011;66757;44.024;20.456;2023-04-15T12:58:07;1.27;;;0.43;;
66169;SDS011;66757;44.024;20.456;2023-04-15T13:00:33;0.85;;;0.30;;
66169;SDS011;66757;44.024;20.456;2023-04-15T13:02:59;0.40;;;0.10;;
66169;SDS011;66757;44.024;20.456;2023-04-15T13:05:25;1.48;;;0.30;;
66169;SDS011;66757;44.024;20.456;2023-04-15T13:07:50;0.28;;;0.10;;
66169;SDS011;66757;44.024;20.456;2023-04-15T13:10:15;1.38;;;0.40;;
66169;SDS011;66757;44.024;20.456;2023-04-15T13:12:41;4.18;;;2.92;;
66169;SDS011;66757;44.024;20.456;2023-04-15T13:15:07;1.35;;;0.73;;
66169;SDS011;66757;44.024;20.456;2023-04-15T13:17:35;0.43;;;0.10;;
66169;SDS011;66757;44.024;20.456;2023-04-15T13:20:00;1.30;;;0.20;;
66169;SDS011;66757;44.024;20.456;2023-04-15T13:22:26;0.63;;;0.13;;
66169;SDS011;66757;44.024;20.456;2023-04-15T13:24:51;2.10;;;0.30;;
66169;SDS011;66757;44.024;20.456;2023-04-15T13:27:16;1.42;;;0.40;;
66169;SDS011;66757;44.024;20.456;2023-04-15T13:29:42;2.55;;;0.80;;
66169;SDS011;66757;44.024;20.456;2023-04-15T13:32:07;1.98;;;0.40;;
66169;SDS011;66757;44.024;20.456;2023-04-15T13:34:33;2.72;;;0.68;;
66169;SDS011;66757;44.024;20.456;2023-04-15T13:36:58;0.80;;;0.20;;
66169;SDS011;66757;44.024;20.456;2023-04-15T13:39:31;2.63;;;1.02;;
66169;SDS011;66757;44.024;20.456;2023-04-15T13:41:56;4.88;;;1.33;;
66169;SDS011;66757;44.024;20.456;2023-04-15T13:44:21;1.25;;;0.20;;
66169;SDS011;66757;44.024;20.456;2023-04-15T13:46:47;0.77;;;0.20;;
66169;SDS011;66757;44.024;20.456;2023-04-15T13:49:12;2.80;;;0.30;;
66169;SDS011;66757;44.024;20.456;2023-04-15T13:51:37;1.30;;;0.20;;
66169;SDS011;66757;44.024;20.456;2023-04-15T13:54:02;2.10;;;0.50;;
66169;SDS011;66757;44.024;20.456;2023-04-15T13:56:28;0.20;;;0.00;;
66169;SDS011;66757;44.024;20.456;2023-04-15T13:58:53;2.25;;;0.30;;
66169;SDS011;66757;44.024;20.456;2023-04-15T14:01:23;5.25;;;0.20;;
66169;SDS011;66757;44.024;20.456;2023-04-15T14:03:48;1.58;;;0.10;;
66169;SDS011;66757;44.024;20.456;2023-04-15T14:06:13;1.00;;;0.20;;
66169;SDS011;66757;44.024;20.456;2023-04-15T14:08:39;0.63;;;0.10;;
66169;SDS011;66757;44.024;20.456;2023-04-15T14:11:05;0.45;;;0.10;;
66169;SDS011;66757;44.024;20.456;2023-04-15T14:13:30;1.55;;;0.30;;
66169;SDS011;66757;44.024;20.456;2023-04-15T14:18:25;0.68;;;0.20;;
66169;SDS011;66757;44.024;20.456;2023-04-15T14:20:52;0.90;;;0.20;;
66169;SDS011;66757;44.024;20.456;2023-04-15T14:23:18;0.73;;;0.20;;
66169;SDS011;66757;44.024;20.456;2023-04-15T14:25:43;1.00;;;0.52;;
66169;SDS011;66757;44.024;20.456;2023-04-15T14:28:09;1.45;;;0.50;;
66169;SDS011;66757;44.024;20.456;2023-04-15T14:30:34;1.10;;;0.10;;
66169;SDS011;66757;44.024;20.456;2023-04-15T14:33:00;0.40;;;0.10;;
66169;SDS011;66757;44.024;20.456;2023-04-15T14:35:26;0.40;;;0.10;;
66169;SDS011;66757;44.024;20.456;2023-04-15T14:37:52;1.23;;;0.20;;
66169;SDS011;66757;44.024;20.456;2023-04-15T14:40:18;1.70;;;0.30;;
66169;SDS011;66757;44.024;20.456;2023-04-15T14:42:44;2.13;;;0.20;;
66169;SDS011;66757;44.024;20.456;2023-04-15T14:45:10;2.05;;;0.45;;
66169;SDS011;66757;44.024;20.456;2023-04-15T14:47:35;6.15;;;2.90;;
66169;SDS011;66757;44.024;20.456;2023-04-15T14:50:00;3.20;;;0.70;;
66169;SDS011;66757;44.024;20.456;2023-04-15T14:52:26;1.15;;;0.30;;
66169;SDS011;66757;44.024;20.456;2023-04-15T14:54:51;2.35;;;0.20;;
66169;SDS011;66757;44.024;20.456;2023-04-15T14:57:18;3.20;;;0.13;;
66169;SDS011;66757;44.024;20.456;2023-04-15T14:59:44;0.98;;;0.28;;
66169;SDS011;66757;44.024;20.456;2023-04-15T15:02:09;0.70;;;0.20;;
66169;SDS011;66757;44.024;20.456;2023-04-15T15:04:35;0.45;;;0.10;;
66169;SDS011;66757;44.024;20.456;2023-04-15T15:07:00;0.75;;;0.10;;